Maysville, West Virginia
Current Conditions -  °F | °C
As of 3:15 PM on Sunday 25 Jan 2015 (Local Time) from KW99 Reporting Station
Scattered Clouds Scattered Clouds  
Wind Chill: 44°   Ceiling: Unl
Heat Index: 47°   Visibility: 10mi
Dew Point: 31°   Wind: 5mph
Humidity: 56%   Direction: 170°S
Pressure: 29.77"   Gusts: NA
Location:  39.11°N, 79.16°W
Report Text: KW99 252015Z AUTO 17004KT 10SM SCT120 08/00 A2977 RMK AO2 T00811003
Loading
Personal Weather Stations






























Interactive Weather Map New forecast layout! Learn more

10-Day Weather Forecast

Advertisements
Track Severe Weather on mobile